sensor_id;sensor_type;location;lat;lon;timestamp;temperature;humidity
6518;DHT22;3292;48.944;9.240;2023-04-24T00:02:24;11.40;99.90
6518;DHT22;3292;48.944;9.240;2023-04-24T00:04:51;11.40;99.90
6518;DHT22;3292;48.944;9.240;2023-04-24T00:07:18;11.40;99.90
6518;DHT22;3292;48.944;9.240;2023-04-24T00:09:45;11.40;99.90
6518;DHT22;3292;48.944;9.240;2023-04-24T00:12:12;11.50;99.90
6518;DHT22;3292;48.944;9.240;2023-04-24T00:14:39;11.50;99.90
6518;DHT22;3292;48.944;9.240;2023-04-24T00:17:06;11.50;99.90
6518;DHT22;3292;48.944;9.240;2023-04-24T00:19:34;11.50;99.90
6518;DHT22;3292;48.944;9.240;2023-04-24T00:22:02;11.50;99.90
6518;DHT22;3292;48.944;9.240;2023-04-24T00:24:29;11.50;99.90
6518;DHT22;3292;48.944;9.240;2023-04-24T00:26:56;11.50;99.90
6518;DHT22;3292;48.944;9.240;2023-04-24T00:29:23;11.40;99.90
6518;DHT22;3292;48.944;9.240;2023-04-24T00:31:49;11.50;99.90
6518;DHT22;3292;48.944;9.240;2023-04-24T00:34:16;11.50;99.90
6518;DHT22;3292;48.944;9.240;2023-04-24T00:36:45;11.50;99.90
6518;DHT22;3292;48.944;9.240;2023-04-24T00:39:11;11.50;99.90
6518;DHT22;3292;48.944;9.240;2023-04-24T00:41:38;11.50;99.90
6518;DHT22;3292;48.944;9.240;2023-04-24T00:44:05;11.50;99.90
6518;DHT22;3292;48.944;9.240;2023-04-24T00:46:32;11.60;99.90
6518;DHT22;3292;48.944;9.240;2023-04-24T00:48:59;11.60;99.90
6518;DHT22;3292;48.944;9.240;2023-04-24T00:51:26;11.70;99.90
6518;DHT22;3292;48.944;9.240;2023-04-24T00:53:54;11.70;99.90
6518;DHT22;3292;48.944;9.240;2023-04-24T00:56:21;11.80;99.90
6518;DHT22;3292;48.944;9.240;2023-04-24T00:58:49;11.80;99.90
6518;DHT22;3292;48.944;9.240;2023-04-24T01:01:16;11.80;99.90
6518;DHT22;3292;48.944;9.240;2023-04-24T01:03:43;11.80;99.90
6518;DHT22;3292;48.944;9.240;2023-04-24T01:06:10;11.80;99.90
6518;DHT22;3292;48.944;9.240;2023-04-24T01:08:38;11.80;99.90
6518;DHT22;3292;48.944;9.240;2023-04-24T01:11:07;11.90;99.90
6518;DHT22;3292;48.944;9.240;2023-04-24T01:13:34;11.90;99.90
6518;DHT22;3292;48.944;9.240;2023-04-24T01:16:01;11.90;99.90
6518;DHT22;3292;48.944;9.240;2023-04-24T01:18:28;11.90;99.90
6518;DHT22;3292;48.944;9.240;2023-04-24T01:20:58;11.90;99.90
6518;DHT22;3292;48.944;9.240;2023-04-24T01:23:26;11.90;99.90
6518;DHT22;3292;48.944;9.240;2023-04-24T01:25:54;11.90;99.90
6518;DHT22;3292;48.944;9.240;2023-04-24T01:28:21;11.90;99.90
6518;DHT22;3292;48.944;9.240;2023-04-24T01:30:48;11.90;99.90
6518;DHT22;3292;48.944;9.240;2023-04-24T01:33:15;11.90;99.90
6518;DHT22;3292;48.944;9.240;2023-04-24T01:35:43;11.90;99.90
6518;DHT22;3292;48.944;9.240;2023-04-24T01:38:10;11.80;99.90
6518;DHT22;3292;48.944;9.240;2023-04-24T01:40:38;11.80;99.90
6518;DHT22;3292;48.944;9.240;2023-04-24T01:43:05;11.80;99.90
6518;DHT22;3292;48.944;9.240;2023-04-24T01:45:32;11.80;99.90
6518;DHT22;3292;48.944;9.240;2023-04-24T01:48:00;11.70;99.90
6518;DHT22;3292;48.944;9.240;2023-04-24T01:50:27;11.70;99.90
6518;DHT22;3292;48.944;9.240;2023-04-24T01:52:54;11.70;99.90
6518;DHT22;3292;48.944;9.240;2023-04-24T01:55:21;11.70;99.90
6518;DHT22;3292;48.944;9.240;2023-04-24T01:57:49;11.60;99.90
6518;DHT22;3292;48.944;9.240;2023-04-24T02:00:16;11.60;99.90
6518;DHT22;3292;48.944;9.240;2023-04-24T02:02:43;11.60;99.90
6518;DHT22;3292;48.944;9.240;2023-04-24T02:05:10;11.60;99.90
6518;DHT22;3292;48.944;9.240;2023-04-24T02:07:37;11.50;99.90
6518;DHT22;3292;48.944;9.240;2023-04-24T02:10:05;11.50;99.90
6518;DHT22;3292;48.944;9.240;2023-04-24T02:12:32;11.50;99.90
6518;DHT22;3292;48.944;9.240;2023-04-24T02:15:00;11.40;99.90
6518;DHT22;3292;48.944;9.240;2023-04-24T02:17:27;11.40;99.90
6518;DHT22;3292;48.944;9.240;2023-04-24T02:19:54;11.50;99.90
6518;DHT22;3292;48.944;9.240;2023-04-24T02:22:21;11.40;99.90
6518;DHT22;3292;48.944;9.240;2023-04-24T02:24:47;11.40;99.90
6518;DHT22;3292;48.944;9.240;2023-04-24T02:27:14;11.40;99.90
6518;DHT22;3292;48.944;9.240;2023-04-24T02:29:41;11.40;99.90
6518;DHT22;3292;48.944;9.240;2023-04-24T02:32:09;11.40;99.90
6518;DHT22;3292;48.944;9.240;2023-04-24T02:34:37;11.40;99.90
6518;DHT22;3292;48.944;9.240;2023-04-24T02:37:04;11.40;99.90
6518;DHT22;3292;48.944;9.240;2023-04-24T02:39:30;11.50;99.90
6518;DHT22;3292;48.944;9.240;2023-04-24T02:41:57;11.40;99.90
6518;DHT22;3292;48.944;9.240;2023-04-24T02:44:24;11.50;99.90
6518;DHT22;3292;48.944;9.240;2023-04-24T02:46:51;11.50;99.90
6518;DHT22;3292;48.944;9.240;2023-04-24T02:49:19;11.50;99.90
6518;DHT22;3292;48.944;9.240;2023-04-24T02:51:46;11.50;99.90
6518;DHT22;3292;48.944;9.240;2023-04-24T02:54:13;11.50;99.90
6518;DHT22;3292;48.944;9.240;2023-04-24T02:56:40;11.50;99.90
6518;DHT22;3292;48.944;9.240;2023-04-24T02:59:07;11.50;99.90
6518;DHT22;3292;48.944;9.240;2023-04-24T03:01:33;11.50;99.90
6518;DHT22;3292;48.944;9.240;2023-04-24T03:04:00;11.50;99.90
6518;DHT22;3292;48.944;9.240;2023-04-24T03:06:29;11.40;99.90
6518;DHT22;3292;48.944;9.240;2023-04-24T03:08:56;11.40;99.90
6518;DHT22;3292;48.944;9.240;2023-04-24T03:11:23;11.40;99.90
6518;DHT22;3292;48.944;9.240;2023-04-24T03:13:50;11.40;99.90
6518;DHT22;3292;48.944;9.240;2023-04-24T03:16:17;11.30;99.90
6518;DHT22;3292;48.944;9.240;2023-04-24T03:18:44;11.30;99.90
6518;DHT22;3292;48.944;9.240;2023-04-24T03:21:11;11.30;99.90
6518;DHT22;3292;48.944;9.240;2023-04-24T03:23:40;11.20;99.90
6518;DHT22;3292;48.944;9.240;2023-04-24T03:26:06;11.10;99.90
6518;DHT22;3292;48.944;9.240;2023-04-24T03:28:33;11.10;99.90
6518;DHT22;3292;48.944;9.240;2023-04-24T03:31:00;11.20;99.90
6518;DHT22;3292;48.944;9.240;2023-04-24T03:33:27;11.10;99.90
6518;DHT22;3292;48.944;9.240;2023-04-24T03:35:55;11.20;99.90
6518;DHT22;3292;48.944;9.240;2023-04-24T03:38:22;11.10;99.90
6518;DHT22;3292;48.944;9.240;2023-04-24T03:40:50;11.10;99.90
6518;DHT22;3292;48.944;9.240;2023-04-24T03:43:17;11.10;99.90
6518;DHT22;3292;48.944;9.240;2023-04-24T03:45:44;11.10;99.90
6518;DHT22;3292;48.944;9.240;2023-04-24T03:48:10;11.10;99.90
6518;DHT22;3292;48.944;9.240;2023-04-24T03:50:37;11.00;99.90
6518;DHT22;3292;48.944;9.240;2023-04-24T03:53:04;11.00;99.90
6518;DHT22;3292;48.944;9.240;2023-04-24T03:55:31;11.00;99.90
6518;DHT22;3292;48.944;9.240;2023-04-24T03:57:59;11.00;99.90
6518;DHT22;3292;48.944;9.240;2023-04-24T04:00:26;10.90;99.90
6518;DHT22;3292;48.944;9.240;2023-04-24T04:02:53;10.90;99.90
6518;DHT22;3292;48.944;9.240;2023-04-24T04:05:20;10.90;99.90
6518;DHT22;3292;48.944;9.240;2023-04-24T04:07:47;10.90;99.90
6518;DHT22;3292;48.944;9.240;2023-04-24T04:10:14;10.90;99.90
6518;DHT22;3292;48.944;9.240;2023-04-24T04:12:40;10.90;99.90
6518;DHT22;3292;48.944;9.240;2023-04-24T04:15:09;10.90;99.90
6518;DHT22;3292;48.944;9.240;2023-04-24T04:17:36;10.80;99.90
6518;DHT22;3292;48.944;9.240;2023-04-24T04:20:05;10.70;99.90
6518;DHT22;3292;48.944;9.240;2023-04-24T04:22:34;10.60;99.90
6518;DHT22;3292;48.944;9.240;2023-04-24T04:25:02;10.40;99.90
6518;DHT22;3292;48.944;9.240;2023-04-24T04:27:29;10.20;99.90
6518;DHT22;3292;48.944;9.240;2023-04-24T04:29:57;10.10;99.90
6518;DHT22;3292;48.944;9.240;2023-04-24T04:32:26;9.90;99.90
6518;DHT22;3292;48.944;9.240;2023-04-24T04:34:53;9.80;99.90
6518;DHT22;3292;48.944;9.240;2023-04-24T04:37:20;9.70;99.90
6518;DHT22;3292;48.944;9.240;2023-04-24T04:39:47;9.70;99.90
6518;DHT22;3292;48.944;9.240;2023-04-24T04:42:14;9.60;99.90
6518;DHT22;3292;48.944;9.240;2023-04-24T04:44:40;9.60;99.90
6518;DHT22;3292;48.944;9.240;2023-04-24T04:47:08;9.50;99.90
6518;DHT22;3292;48.944;9.240;2023-04-24T04:49:37;9.50;99.90
6518;DHT22;3292;48.944;9.240;2023-04-24T04:52:05;9.50;99.90
6518;DHT22;3292;48.944;9.240;2023-04-24T04:54:31;9.50;99.90
6518;DHT22;3292;48.944;9.240;2023-04-24T04:56:58;9.40;99.90
6518;DHT22;3292;48.944;9.240;2023-04-24T04:59:26;9.40;99.90
6518;DHT22;3292;48.944;9.240;2023-04-24T05:01:52;9.40;99.90
6518;DHT22;3292;48.944;9.240;2023-04-24T05:04:20;9.40;99.90
6518;DHT22;3292;48.944;9.240;2023-04-24T05:06:49;9.40;99.90
6518;DHT22;3292;48.944;9.240;2023-04-24T05:09:16;9.40;99.90
6518;DHT22;3292;48.944;9.240;2023-04-24T05:11:43;9.40;99.90
6518;DHT22;3292;48.944;9.240;2023-04-24T05:14:10;9.40;99.90
6518;DHT22;3292;48.944;9.240;2023-04-24T05:16:38;9.40;99.90
6518;DHT22;3292;48.944;9.240;2023-04-24T05:19:04;9.40;99.90
6518;DHT22;3292;48.944;9.240;2023-04-24T05:21:31;9.40;99.90
6518;DHT22;3292;48.944;9.240;2023-04-24T05:23:59;9.40;99.90
6518;DHT22;3292;48.944;9.240;2023-04-24T05:26:26;9.40;99.90
6518;DHT22;3292;48.944;9.240;2023-04-24T05:28:53;9.40;99.90
6518;DHT22;3292;48.944;9.240;2023-04-24T05:31:20;9.50;99.90
6518;DHT22;3292;48.944;9.240;2023-04-24T05:33:47;9.50;99.90
6518;DHT22;3292;48.944;9.240;2023-04-24T05:36:14;9.50;99.90
6518;DHT22;3292;48.944;9.240;2023-04-24T05:38:41;9.50;99.90
6518;DHT22;3292;48.944;9.240;2023-04-24T05:41:09;9.50;99.90
6518;DHT22;3292;48.944;9.240;2023-04-24T05:43:36;9.50;99.90
6518;DHT22;3292;48.944;9.240;2023-04-24T05:46:02;9.50;99.90
6518;DHT22;3292;48.944;9.240;2023-04-24T05:48:29;9.50;99.90
6518;DHT22;3292;48.944;9.240;2023-04-24T05:50:56;9.50;99.90
6518;DHT22;3292;48.944;9.240;2023-04-24T05:53:26;9.40;99.90
6518;DHT22;3292;48.944;9.240;2023-04-24T05:55:52;9.40;99.90
6518;DHT22;3292;48.944;9.240;2023-04-24T05:58:21;9.40;99.90
6518;DHT22;3292;48.944;9.240;2023-04-24T06:00:47;9.30;99.90
6518;DHT22;3292;48.944;9.240;2023-04-24T06:03:15;9.30;99.90
6518;DHT22;3292;48.944;9.240;2023-04-24T06:05:42;9.70;99.90
6518;DHT22;3292;48.944;9.240;2023-04-24T06:08:09;10.30;99.90
6518;DHT22;3292;48.944;9.240;2023-04-24T06:10:36;11.10;99.90
6518;DHT22;3292;48.944;9.240;2023-04-24T06:13:03;11.60;99.90
6518;DHT22;3292;48.944;9.240;2023-04-24T06:15:33;11.80;99.90
6518;DHT22;3292;48.944;9.240;2023-04-24T06:18:00;11.80;99.90
6518;DHT22;3292;48.944;9.240;2023-04-24T06:20:27;11.70;99.90
6518;DHT22;3292;48.944;9.240;2023-04-24T06:22:53;11.70;99.90
6518;DHT22;3292;48.944;9.240;2023-04-24T06:25:20;12.00;99.90
6518;DHT22;3292;48.944;9.240;2023-04-24T06:27:47;12.20;99.90
6518;DHT22;3292;48.944;9.240;2023-04-24T06:30:14;12.30;99.90
6518;DHT22;3292;48.944;9.240;2023-04-24T06:32:42;12.40;99.90
6518;DHT22;3292;48.944;9.240;2023-04-24T06:35:09;12.70;99.90
6518;DHT22;3292;48.944;9.240;2023-04-24T06:37:38;12.80;99.90
6518;DHT22;3292;48.944;9.240;2023-04-24T06:40:07;13.00;99.90
6518;DHT22;3292;48.944;9.240;2023-04-24T06:42:34;12.70;99.90
6518;DHT22;3292;48.944;9.240;2023-04-24T06:45:01;12.30;99.90
6518;DHT22;3292;48.944;9.240;2023-04-24T06:47:29;12.10;99.90
6518;DHT22;3292;48.944;9.240;2023-04-24T06:50:00;12.00;99.90
6518;DHT22;3292;48.944;9.240;2023-04-24T06:52:28;12.00;99.90
6518;DHT22;3292;48.944;9.240;2023-04-24T06:55:04;11.70;99.90
6518;DHT22;3292;48.944;9.240;2023-04-24T06:57:41;11.50;99.90
6518;DHT22;3292;48.944;9.240;2023-04-24T07:00:11;11.30;99.90
6518;DHT22;3292;48.944;9.240;2023-04-24T07:02:38;11.30;99.90
6518;DHT22;3292;48.944;9.240;2023-04-24T07:05:08;11.20;99.90
6518;DHT22;3292;48.944;9.240;2023-04-24T07:07:37;11.20;99.90
6518;DHT22;3292;48.944;9.240;2023-04-24T07:10:11;11.30;99.90
6518;DHT22;3292;48.944;9.240;2023-04-24T07:12:39;11.50;99.90
6518;DHT22;3292;48.944;9.240;2023-04-24T07:15:10;11.80;99.90
6518;DHT22;3292;48.944;9.240;2023-04-24T07:17:44;12.20;99.90
6518;DHT22;3292;48.944;9.240;2023-04-24T07:20:13;12.60;99.90
6518;DHT22;3292;48.944;9.240;2023-04-24T07:22:43;12.70;99.90
6518;DHT22;3292;48.944;9.240;2023-04-24T07:25:11;12.40;99.90
6518;DHT22;3292;48.944;9.240;2023-04-24T07:27:41;12.00;99.90
6518;DHT22;3292;48.944;9.240;2023-04-24T07:30:25;11.90;99.90
6518;DHT22;3292;48.944;9.240;2023-04-24T07:33:03;11.90;99.90
6518;DHT22;3292;48.944;9.240;2023-04-24T07:35:51;11.70;99.90
6518;DHT22;3292;48.944;9.240;2023-04-24T07:38:21;11.70;99.90
6518;DHT22;3292;48.944;9.240;2023-04-24T07:40:49;11.90;99.90
6518;DHT22;3292;48.944;9.240;2023-04-24T07:43:22;11.90;99.90
6518;DHT22;3292;48.944;9.240;2023-04-24T07:45:50;11.80;99.90
6518;DHT22;3292;48.944;9.240;2023-04-24T07:48:22;11.60;99.90
6518;DHT22;3292;48.944;9.240;2023-04-24T07:51:00;11.50;99.90
6518;DHT22;3292;48.944;9.240;2023-04-24T07:53:28;11.40;99.90
6518;DHT22;3292;48.944;9.240;2023-04-24T07:56:14;11.30;99.90
6518;DHT22;3292;48.944;9.240;2023-04-24T07:58:43;11.30;99.90
6518;DHT22;3292;48.944;9.240;2023-04-24T08:01:13;11.30;99.90
6518;DHT22;3292;48.944;9.240;2023-04-24T08:03:42;11.30;99.90
6518;DHT22;3292;48.944;9.240;2023-04-24T08:06:38;11.50;99.90
6518;DHT22;3292;48.944;9.240;2023-04-24T08:09:25;11.60;99.90
6518;DHT22;3292;48.944;9.240;2023-04-24T08:11:53;11.70;99.90
6518;DHT22;3292;48.944;9.240;2023-04-24T08:14:20;12.00;99.90
6518;DHT22;3292;48.944;9.240;2023-04-24T08:16:53;12.10;99.90
6518;DHT22;3292;48.944;9.240;2023-04-24T08:19:22;12.30;99.90
6518;DHT22;3292;48.944;9.240;2023-04-24T08:21:57;12.40;99.90
6518;DHT22;3292;48.944;9.240;2023-04-24T08:24:26;12.50;99.90
6518;DHT22;3292;48.944;9.240;2023-04-24T08:26:54;12.50;99.90
6518;DHT22;3292;48.944;9.240;2023-04-24T08:29:24;12.40;99.90
6518;DHT22;3292;48.944;9.240;2023-04-24T08:31:56;12.30;99.90
6518;DHT22;3292;48.944;9.240;2023-04-24T08:34:26;12.20;99.90
6518;DHT22;3292;48.944;9.240;2023-04-24T08:36:53;12.30;99.90
6518;DHT22;3292;48.944;9.240;2023-04-24T08:39:21;12.50;99.90
6518;DHT22;3292;48.944;9.240;2023-04-24T08:41:49;12.70;99.90
6518;DHT22;3292;48.944;9.240;2023-04-24T08:44:26;12.90;99.90
6518;DHT22;3292;48.944;9.240;2023-04-24T08:46:56;12.70;99.90
6518;DHT22;3292;48.944;9.240;2023-04-24T08:49:26;12.80;99.90
6518;DHT22;3292;48.944;9.240;2023-04-24T08:51:54;12.60;99.90
6518;DHT22;3292;48.944;9.240;2023-04-24T08:54:27;12.60;99.90
6518;DHT22;3292;48.944;9.240;2023-04-24T08:57:00;12.80;99.90
6518;DHT22;3292;48.944;9.240;2023-04-24T08:59:29;13.20;99.90
6518;DHT22;3292;48.944;9.240;2023-04-24T09:02:15;13.40;99.90
6518;DHT22;3292;48.944;9.240;2023-04-24T09:04:46;13.10;99.90
6518;DHT22;3292;48.944;9.240;2023-04-24T09:07:14;12.90;99.90
6518;DHT22;3292;48.944;9.240;2023-04-24T09:09:45;12.80;99.90
6518;DHT22;3292;48.944;9.240;2023-04-24T09:12:13;12.60;99.90
6518;DHT22;3292;48.944;9.240;2023-04-24T09:14:44;12.70;99.90
6518;DHT22;3292;48.944;9.240;2023-04-24T09:17:15;12.80;99.90
6518;DHT22;3292;48.944;9.240;2023-04-24T09:19:42;12.70;99.90
6518;DHT22;3292;48.944;9.240;2023-04-24T09:22:10;12.70;99.90
6518;DHT22;3292;48.944;9.240;2023-04-24T09:24:38;12.30;99.90
6518;DHT22;3292;48.944;9.240;2023-04-24T09:27:07;12.20;99.90
6518;DHT22;3292;48.944;9.240;2023-04-24T09:29:53;11.90;99.90
6518;DHT22;3292;48.944;9.240;2023-04-24T09:32:22;11.80;99.90
6518;DHT22;3292;48.944;9.240;2023-04-24T09:35:13;11.90;99.90
6518;DHT22;3292;48.944;9.240;2023-04-24T09:37:51;12.00;99.90
6518;DHT22;3292;48.944;9.240;2023-04-24T09:40:22;12.50;99.90
6518;DHT22;3292;48.944;9.240;2023-04-24T09:42:58;12.50;99.90
6518;DHT22;3292;48.944;9.240;2023-04-24T09:45:28;12.40;99.90
6518;DHT22;3292;48.944;9.240;2023-04-24T09:48:02;12.20;99.90
6518;DHT22;3292;48.944;9.240;2023-04-24T09:50:34;12.40;99.90
6518;DHT22;3292;48.944;9.240;2023-04-24T09:53:07;12.50;99.90
6518;DHT22;3292;48.944;9.240;2023-04-24T09:55:42;12.40;99.90
6518;DHT22;3292;48.944;9.240;2023-04-24T09:58:24;12.30;99.90
6518;DHT22;3292;48.944;9.240;2023-04-24T10:00:56;12.10;99.90
6518;DHT22;3292;48.944;9.240;2023-04-24T10:03:25;12.00;99.90
6518;DHT22;3292;48.944;9.240;2023-04-24T10:06:04;11.90;99.90
6518;DHT22;3292;48.944;9.240;2023-04-24T10:08:35;12.10;99.90
6518;DHT22;3292;48.944;9.240;2023-04-24T10:11:05;12.30;99.90
6518;DHT22;3292;48.944;9.240;2023-04-24T10:13:36;12.70;99.90
6518;DHT22;3292;48.944;9.240;2023-04-24T10:16:10;12.90;99.90
6518;DHT22;3292;48.944;9.240;2023-04-24T10:18:39;13.00;99.90
6518;DHT22;3292;48.944;9.240;2023-04-24T10:21:14;12.90;99.90
6518;DHT22;3292;48.944;9.240;2023-04-24T10:23:42;12.90;99.90
6518;DHT22;3292;48.944;9.240;2023-04-24T10:26:12;12.70;99.90
6518;DHT22;3292;48.944;9.240;2023-04-24T10:28:58;12.80;99.90
6518;DHT22;3292;48.944;9.240;2023-04-24T10:31:31;12.60;99.90
6518;DHT22;3292;48.944;9.240;2023-04-24T10:34:00;12.50;99.90
6518;DHT22;3292;48.944;9.240;2023-04-24T10:36:29;12.40;99.90
6518;DHT22;3292;48.944;9.240;2023-04-24T10:39:01;12.40;99.90
6518;DHT22;3292;48.944;9.240;2023-04-24T10:41:37;12.20;99.90
6518;DHT22;3292;48.944;9.240;2023-04-24T10:44:08;12.10;99.90
6518;DHT22;3292;48.944;9.240;2023-04-24T10:46:37;12.00;99.90
6518;DHT22;3292;48.944;9.240;2023-04-24T10:49:05;11.70;99.90
6518;DHT22;3292;48.944;9.240;2023-04-24T10:51:59;11.70;99.90
6518;DHT22;3292;48.944;9.240;2023-04-24T10:54:29;11.60;99.90
6518;DHT22;3292;48.944;9.240;2023-04-24T10:57:27;11.60;99.90
6518;DHT22;3292;48.944;9.240;2023-04-24T11:00:18;11.60;99.90
6518;DHT22;3292;48.944;9.240;2023-04-24T11:02:46;11.70;99.90
6518;DHT22;3292;48.944;9.240;2023-04-24T11:05:22;12.00;99.90
6518;DHT22;3292;48.944;9.240;2023-04-24T11:08:12;12.30;99.90
6518;DHT22;3292;48.944;9.240;2023-04-24T11:10:41;12.70;99.90
6518;DHT22;3292;48.944;9.240;2023-04-24T11:13:22;12.90;99.90
6518;DHT22;3292;48.944;9.240;2023-04-24T11:16:16;13.00;99.90
6518;DHT22;3292;48.944;9.240;2023-04-24T11:18:50;12.90;99.90
6518;DHT22;3292;48.944;9.240;2023-04-24T11:21:21;12.90;99.90
6518;DHT22;3292;48.944;9.240;2023-04-24T11:23:53;12.50;99.90
6518;DHT22;3292;48.944;9.240;2023-04-24T11:26:22;12.40;99.90
6518;DHT22;3292;48.944;9.240;2023-04-24T11:29:07;12.50;99.90
6518;DHT22;3292;48.944;9.240;2023-04-24T11:31:45;12.50;99.90
6518;DHT22;3292;48.944;9.240;2023-04-24T11:34:16;12.50;99.90
6518;DHT22;3292;48.944;9.240;2023-04-24T11:36:44;12.50;99.90
6518;DHT22;3292;48.944;9.240;2023-04-24T11:39:13;12.50;99.90
6518;DHT22;3292;48.944;9.240;2023-04-24T11:41:43;12.50;99.90
6518;DHT22;3292;48.944;9.240;2023-04-24T11:44:11;12.50;99.90
6518;DHT22;3292;48.944;9.240;2023-04-24T11:46:42;12.30;99.90
6518;DHT22;3292;48.944;9.240;2023-04-24T11:49:19;12.30;99.90
6518;DHT22;3292;48.944;9.240;2023-04-24T11:54:37;12.40;99.90
6518;DHT22;3292;48.944;9.240;2023-04-24T11:57:05;12.30;99.90
6518;DHT22;3292;48.944;9.240;2023-04-24T11:59:36;12.30;99.90
6518;DHT22;3292;48.944;9.240;2023-04-24T12:02:06;12.30;99.90
6518;DHT22;3292;48.944;9.240;2023-04-24T12:07:42;12.20;99.90
6518;DHT22;3292;48.944;9.240;2023-04-24T12:10:10;11.90;99.90
6518;DHT22;3292;48.944;9.240;2023-04-24T12:12:37;11.90;99.90
6518;DHT22;3292;48.944;9.240;2023-04-24T12:15:08;11.90;99.90
6518;DHT22;3292;48.944;9.240;2023-04-24T12:17:41;11.90;99.90
6518;DHT22;3292;48.944;9.240;2023-04-24T12:20:13;12.00;99.90
6518;DHT22;3292;48.944;9.240;2023-04-24T12:22:49;12.00;99.90
6518;DHT22;3292;48.944;9.240;2023-04-24T12:25:18;12.00;99.90
6518;DHT22;3292;48.944;9.240;2023-04-24T12:27:53;12.10;99.90
6518;DHT22;3292;48.944;9.240;2023-04-24T12:30:27;12.30;99.90
6518;DHT22;3292;48.944;9.240;2023-04-24T12:33:06;12.40;99.90
6518;DHT22;3292;48.944;9.240;2023-04-24T12:35:33;12.30;99.90
6518;DHT22;3292;48.944;9.240;2023-04-24T12:38:08;12.10;99.90
6518;DHT22;3292;48.944;9.240;2023-04-24T12:40:36;11.90;99.90
6518;DHT22;3292;48.944;9.240;2023-04-24T12:43:13;11.60;99.90
6518;DHT22;3292;48.944;9.240;2023-04-24T12:45:42;11.20;99.90
6518;DHT22;3292;48.944;9.240;2023-04-24T12:48:13;11.10;99.90
6518;DHT22;3292;48.944;9.240;2023-04-24T12:50:43;11.20;99.90
6518;DHT22;3292;48.944;9.240;2023-04-24T12:53:11;11.10;99.90
6518;DHT22;3292;48.944;9.240;2023-04-24T12:55:53;11.00;99.90
6518;DHT22;3292;48.944;9.240;2023-04-24T12:58:23;11.10;99.90
6518;DHT22;3292;48.944;9.240;2023-04-24T13:00:54;11.10;99.90
6518;DHT22;3292;48.944;9.240;2023-04-24T13:03:25;11.20;99.90
6518;DHT22;3292;48.944;9.240;2023-04-24T13:05:57;11.30;99.90
6518;DHT22;3292;48.944;9.240;2023-04-24T13:08:27;11.10;99.90
6518;DHT22;3292;48.944;9.240;2023-04-24T13:10:57;11.00;99.90
6518;DHT22;3292;48.944;9.240;2023-04-24T13:13:25;11.10;99.90
6518;DHT22;3292;48.944;9.240;2023-04-24T13:15:52;11.00;99.90
6518;DHT22;3292;48.944;9.240;2023-04-24T13:18:25;11.10;99.90
6518;DHT22;3292;48.944;9.240;2023-04-24T13:20:52;11.20;99.90
6518;DHT22;3292;48.944;9.240;2023-04-24T13:23:30;11.40;99.90
6518;DHT22;3292;48.944;9.240;2023-04-24T13:25:57;11.50;99.90
6518;DHT22;3292;48.944;9.240;2023-04-24T13:28:25;11.90;99.90
6518;DHT22;3292;48.944;9.240;2023-04-24T13:30:53;12.50;99.90
6518;DHT22;3292;48.944;9.240;2023-04-24T13:33:23;12.90;99.90
6518;DHT22;3292;48.944;9.240;2023-04-24T13:35:53;13.30;99.90
6518;DHT22;3292;48.944;9.240;2023-04-24T13:38:21;13.10;99.90
6518;DHT22;3292;48.944;9.240;2023-04-24T13:40:54;12.90;99.90
6518;DHT22;3292;48.944;9.240;2023-04-24T13:43:24;12.50;99.90
6518;DHT22;3292;48.944;9.240;2023-04-24T13:45:59;12.30;99.90
6518;DHT22;3292;48.944;9.240;2023-04-24T13:48:28;12.30;99.90
6518;DHT22;3292;48.944;9.240;2023-04-24T13:51:06;12.10;99.90
6518;DHT22;3292;48.944;9.240;2023-04-24T13:53:34;12.10;99.90
6518;DHT22;3292;48.944;9.240;2023-04-24T13:56:06;12.40;99.90
6518;DHT22;3292;48.944;9.240;2023-04-24T13:58:34;12.60;99.90
6518;DHT22;3292;48.944;9.240;2023-04-24T14:01:02;12.90;99.90
6518;DHT22;3292;48.944;9.240;2023-04-24T14:03:30;13.20;99.90
6518;DHT22;3292;48.944;9.240;2023-04-24T14:06:00;13.10;99.90
6518;DHT22;3292;48.944;9.240;2023-04-24T14:08:41;12.90;99.90
6518;DHT22;3292;48.944;9.240;2023-04-24T14:11:09;13.00;99.90
6518;DHT22;3292;48.944;9.240;2023-04-24T14:13:37;13.30;99.90
6518;DHT22;3292;48.944;9.240;2023-04-24T14:16:09;13.40;99.90
6518;DHT22;3292;48.944;9.240;2023-04-24T14:18:37;13.50;99.90
6518;DHT22;3292;48.944;9.240;2023-04-24T14:21:05;13.50;99.90
6518;DHT22;3292;48.944;9.240;2023-04-24T14:23:32;13.40;99.90
6518;DHT22;3292;48.944;9.240;2023-04-24T14:26:04;13.10;99.90
6518;DHT22;3292;48.944;9.240;2023-04-24T14:28:35;13.00;99.90
6518;DHT22;3292;48.944;9.240;2023-04-24T14:31:02;12.90;99.90
6518;DHT22;3292;48.944;9.240;2023-04-24T14:33:28;13.00;99.90
6518;DHT22;3292;48.944;9.240;2023-04-24T14:35:55;12.90;99.90
6518;DHT22;3292;48.944;9.240;2023-04-24T14:38:22;12.80;99.90
6518;DHT22;3292;48.944;9.240;2023-04-24T14:40:49;13.10;99.90
6518;DHT22;3292;48.944;9.240;2023-04-24T14:43:17;13.10;99.90
6518;DHT22;3292;48.944;9.240;2023-04-24T14:45:44;13.20;99.90
6518;DHT22;3292;48.944;9.240;2023-04-24T14:48:11;13.10;99.90
6518;DHT22;3292;48.944;9.240;2023-04-24T14:50:38;13.10;99.90
6518;DHT22;3292;48.944;9.240;2023-04-24T14:53:05;13.10;99.90
6518;DHT22;3292;48.944;9.240;2023-04-24T14:55:32;13.00;99.90
6518;DHT22;3292;48.944;9.240;2023-04-24T14:58:00;13.30;99.90
6518;DHT22;3292;48.944;9.240;2023-04-24T15:00:28;13.60;99.90
6518;DHT22;3292;48.944;9.240;2023-04-24T15:02:55;13.70;99.90
6518;DHT22;3292;48.944;9.240;2023-04-24T15:05:22;13.50;99.90
6518;DHT22;3292;48.944;9.240;2023-04-24T15:07:50;13.30;99.90
6518;DHT22;3292;48.944;9.240;2023-04-24T15:10:17;13.10;99.90
6518;DHT22;3292;48.944;9.240;2023-04-24T15:12:44;13.10;99.90
6518;DHT22;3292;48.944;9.240;2023-04-24T15:15:11;13.10;99.90
6518;DHT22;3292;48.944;9.240;2023-04-24T15:17:39;13.10;99.90
6518;DHT22;3292;48.944;9.240;2023-04-24T15:20:07;12.90;99.90
6518;DHT22;3292;48.944;9.240;2023-04-24T15:22:35;12.90;99.90
6518;DHT22;3292;48.944;9.240;2023-04-24T15:25:02;12.80;99.90
6518;DHT22;3292;48.944;9.240;2023-04-24T15:27:39;12.70;99.90
6518;DHT22;3292;48.944;9.240;2023-04-24T15:30:08;12.60;99.90
6518;DHT22;3292;48.944;9.240;2023-04-24T15:32:35;12.50;99.90
6518;DHT22;3292;48.944;9.240;2023-04-24T15:35:03;12.50;99.90
6518;DHT22;3292;48.944;9.240;2023-04-24T15:37:31;12.40;99.90
6518;DHT22;3292;48.944;9.240;2023-04-24T15:39:57;12.40;99.90
6518;DHT22;3292;48.944;9.240;2023-04-24T15:42:25;12.40;99.90
6518;DHT22;3292;48.944;9.240;2023-04-24T15:44:52;12.60;99.90
6518;DHT22;3292;48.944;9.240;2023-04-24T15:47:19;12.90;99.90
6518;DHT22;3292;48.944;9.240;2023-04-24T15:49:46;13.10;99.90
6518;DHT22;3292;48.944;9.240;2023-04-24T15:52:14;13.10;99.90
6518;DHT22;3292;48.944;9.240;2023-04-24T15:54:41;13.10;99.90
6518;DHT22;3292;48.944;9.240;2023-04-24T15:57:08;13.10;99.90
6518;DHT22;3292;48.944;9.240;2023-04-24T15:59:35;13.00;99.90
6518;DHT22;3292;48.944;9.240;2023-04-24T16:02:02;13.10;99.90
6518;DHT22;3292;48.944;9.240;2023-04-24T16:04:30;13.10;99.90
6518;DHT22;3292;48.944;9.240;2023-04-24T16:06:57;13.10;99.90
6518;DHT22;3292;48.944;9.240;2023-04-24T16:09:25;13.10;99.90
6518;DHT22;3292;48.944;9.240;2023-04-24T16:11:52;13.10;99.90
6518;DHT22;3292;48.944;9.240;2023-04-24T16:14:19;13.10;99.90
6518;DHT22;3292;48.944;9.240;2023-04-24T16:16:45;13.00;99.90
6518;DHT22;3292;48.944;9.240;2023-04-24T16:19:12;13.10;99.90
6518;DHT22;3292;48.944;9.240;2023-04-24T16:21:40;13.20;99.90
6518;DHT22;3292;48.944;9.240;2023-04-24T16:24:07;13.20;99.90